aviador You're here:

K1YT Decoded Metar

in
Report Time2017-04-24 12:58:00
UTC Time2017-04-24 13:16:13
Flight Rules vfr VFR
WindCalm
Visibility9999 m
Phenomena:N/A
Clouds:Broken 036 Hf
Expected CloudBase > 2,000 ft AGL from Temp-Dew spread
Ceiling3,600 ft
Temp07°C
Dew Point02°C (71% RH)
AAT5.3°C
QNH1005 hPa
Raw Report
METAR K1YT 241258Z AUTO 00000KT 10SM BKN036 07/02 A2968 RMK AO2 SLPNO
T00710022 $=

Extra information for K1YT:More info

Social comments